sensor_id;sensor_type;location;lat;lon;timestamp;P1;durP1;ratioP1;P2;durP2;ratioP2
81306;SDS011;70775;50.846;3.224;2024-01-15T00:01:49;11.45;;;5.95;;
81306;SDS011;70775;50.846;3.224;2024-01-15T00:04:15;13.25;;;6.45;;
81306;SDS011;70775;50.846;3.224;2024-01-15T00:06:40;14.15;;;6.35;;
81306;SDS011;70775;50.846;3.224;2024-01-15T00:09:06;13.32;;;6.80;;
81306;SDS011;70775;50.846;3.224;2024-01-15T00:11:32;14.10;;;6.55;;
81306;SDS011;70775;50.846;3.224;2024-01-15T00:13:57;11.55;;;6.65;;
81306;SDS011;70775;50.846;3.224;2024-01-15T00:16:23;13.25;;;6.68;;
81306;SDS011;70775;50.846;3.224;2024-01-15T00:18:49;11.82;;;6.70;;
81306;SDS011;70775;50.846;3.224;2024-01-15T00:21:15;16.50;;;6.72;;
81306;SDS011;70775;50.846;3.224;2024-01-15T00:23:43;12.35;;;6.32;;
81306;SDS011;70775;50.846;3.224;2024-01-15T00:26:09;9.85;;;6.05;;
81306;SDS011;70775;50.846;3.224;2024-01-15T00:28:36;10.75;;;5.40;;
81306;SDS011;70775;50.846;3.224;2024-01-15T00:31:02;13.77;;;6.18;;
81306;SDS011;70775;50.846;3.224;2024-01-15T00:33:28;11.88;;;5.72;;
81306;SDS011;70775;50.846;3.224;2024-01-15T00:35:53;15.93;;;5.55;;
81306;SDS011;70775;50.846;3.224;2024-01-15T00:38:19;13.82;;;5.93;;
81306;SDS011;70775;50.846;3.224;2024-01-15T00:40:45;13.80;;;5.63;;
81306;SDS011;70775;50.846;3.224;2024-01-15T00:43:10;11.20;;;5.55;;
81306;SDS011;70775;50.846;3.224;2024-01-15T00:45:36;11.48;;;5.50;;
81306;SDS011;70775;50.846;3.224;2024-01-15T00:48:02;15.48;;;5.15;;
81306;SDS011;70775;50.846;3.224;2024-01-15T00:50:28;10.98;;;5.00;;
81306;SDS011;70775;50.846;3.224;2024-01-15T00:52:55;11.25;;;4.88;;
81306;SDS011;70775;50.846;3.224;2024-01-15T00:55:21;12.05;;;5.00;;
81306;SDS011;70775;50.846;3.224;2024-01-15T00:57:46;10.75;;;4.15;;
81306;SDS011;70775;50.846;3.224;2024-01-15T01:00:12;12.43;;;5.70;;
81306;SDS011;70775;50.846;3.224;2024-01-15T01:02:38;13.80;;;5.60;;
81306;SDS011;70775;50.846;3.224;2024-01-15T01:05:04;16.50;;;5.30;;
81306;SDS011;70775;50.846;3.224;2024-01-15T01:07:30;10.77;;;5.72;;
81306;SDS011;70775;50.846;3.224;2024-01-15T01:09:55;7.80;;;4.40;;
81306;SDS011;70775;50.846;3.224;2024-01-15T01:12:21;14.70;;;5.10;;
81306;SDS011;70775;50.846;3.224;2024-01-15T01:14:47;12.20;;;4.88;;
81306;SDS011;70775;50.846;3.224;2024-01-15T01:17:12;9.75;;;4.07;;
81306;SDS011;70775;50.846;3.224;2024-01-15T01:19:38;11.20;;;4.47;;
81306;SDS011;70775;50.846;3.224;2024-01-15T01:22:03;12.50;;;4.25;;
81306;SDS011;70775;50.846;3.224;2024-01-15T01:24:30;11.77;;;4.28;;
81306;SDS011;70775;50.846;3.224;2024-01-15T01:26:55;7.97;;;4.20;;
81306;SDS011;70775;50.846;3.224;2024-01-15T01:29:21;10.65;;;4.47;;
81306;SDS011;70775;50.846;3.224;2024-01-15T01:31:48;8.90;;;3.92;;
81306;SDS011;70775;50.846;3.224;2024-01-15T01:34:14;10.52;;;4.03;;
81306;SDS011;70775;50.846;3.224;2024-01-15T01:36:41;6.97;;;4.07;;
81306;SDS011;70775;50.846;3.224;2024-01-15T01:39:07;14.95;;;4.43;;
81306;SDS011;70775;50.846;3.224;2024-01-15T01:41:33;8.88;;;4.00;;
81306;SDS011;70775;50.846;3.224;2024-01-15T01:43:59;10.27;;;3.75;;
81306;SDS011;70775;50.846;3.224;2024-01-15T01:46:25;12.02;;;4.68;;
81306;SDS011;70775;50.846;3.224;2024-01-15T01:48:53;12.35;;;4.28;;
81306;SDS011;70775;50.846;3.224;2024-01-15T01:51:20;8.50;;;3.85;;
81306;SDS011;70775;50.846;3.224;2024-01-15T01:53:47;9.60;;;4.32;;
81306;SDS011;70775;50.846;3.224;2024-01-15T01:56:14;6.45;;;2.55;;
81306;SDS011;70775;50.846;3.224;2024-01-15T01:58:42;10.07;;;3.65;;
81306;SDS011;70775;50.846;3.224;2024-01-15T02:01:09;11.13;;;3.63;;
81306;SDS011;70775;50.846;3.224;2024-01-15T02:03:36;7.85;;;3.88;;
81306;SDS011;70775;50.846;3.224;2024-01-15T02:06:03;11.18;;;4.22;;
81306;SDS011;70775;50.846;3.224;2024-01-15T02:08:29;9.43;;;3.80;;
81306;SDS011;70775;50.846;3.224;2024-01-15T02:10:55;10.63;;;4.30;;
81306;SDS011;70775;50.846;3.224;2024-01-15T02:13:20;11.50;;;5.63;;
81306;SDS011;70775;50.846;3.224;2024-01-15T02:15:46;11.45;;;5.35;;
81306;SDS011;70775;50.846;3.224;2024-01-15T02:18:12;12.93;;;5.05;;
81306;SDS011;70775;50.846;3.224;2024-01-15T02:20:37;13.15;;;5.28;;
81306;SDS011;70775;50.846;3.224;2024-01-15T02:23:06;12.45;;;5.75;;
81306;SDS011;70775;50.846;3.224;2024-01-15T02:25:37;10.90;;;5.07;;
81306;SDS011;70775;50.846;3.224;2024-01-15T02:28:11;17.40;;;5.35;;
81306;SDS011;70775;50.846;3.224;2024-01-15T02:30:38;9.70;;;5.07;;
81306;SDS011;70775;50.846;3.224;2024-01-15T02:33:05;12.30;;;5.43;;
81306;SDS011;70775;50.846;3.224;2024-01-15T02:35:31;15.25;;;6.05;;
81306;SDS011;70775;50.846;3.224;2024-01-15T02:37:58;10.15;;;4.82;;
81306;SDS011;70775;50.846;3.224;2024-01-15T02:40:24;12.02;;;5.65;;
81306;SDS011;70775;50.846;3.224;2024-01-15T02:42:49;14.10;;;5.43;;
81306;SDS011;70775;50.846;3.224;2024-01-15T02:45:16;11.70;;;5.45;;
81306;SDS011;70775;50.846;3.224;2024-01-15T02:47:42;15.27;;;5.13;;
81306;SDS011;70775;50.846;3.224;2024-01-15T02:50:07;13.57;;;5.20;;
81306;SDS011;70775;50.846;3.224;2024-01-15T02:52:33;13.65;;;5.20;;
81306;SDS011;70775;50.846;3.224;2024-01-15T02:54:59;12.65;;;5.15;;
81306;SDS011;70775;50.846;3.224;2024-01-15T02:57:25;7.85;;;3.63;;
81306;SDS011;70775;50.846;3.224;2024-01-15T02:59:50;11.02;;;4.45;;
81306;SDS011;70775;50.846;3.224;2024-01-15T03:02:16;9.30;;;4.70;;
81306;SDS011;70775;50.846;3.224;2024-01-15T03:04:45;10.80;;;4.97;;
81306;SDS011;70775;50.846;3.224;2024-01-15T03:07:12;11.85;;;5.30;;
81306;SDS011;70775;50.846;3.224;2024-01-15T03:09:37;10.73;;;5.60;;
81306;SDS011;70775;50.846;3.224;2024-01-15T03:12:03;10.38;;;4.80;;
81306;SDS011;70775;50.846;3.224;2024-01-15T03:14:29;10.60;;;4.93;;
81306;SDS011;70775;50.846;3.224;2024-01-15T03:16:56;10.77;;;4.45;;
81306;SDS011;70775;50.846;3.224;2024-01-15T03:19:22;10.70;;;4.78;;
81306;SDS011;70775;50.846;3.224;2024-01-15T03:21:48;9.15;;;4.07;;
81306;SDS011;70775;50.846;3.224;2024-01-15T03:24:15;8.82;;;4.88;;
81306;SDS011;70775;50.846;3.224;2024-01-15T03:26:40;16.50;;;4.53;;
81306;SDS011;70775;50.846;3.224;2024-01-15T03:29:06;10.23;;;4.78;;
81306;SDS011;70775;50.846;3.224;2024-01-15T03:31:32;8.48;;;3.75;;
81306;SDS011;70775;50.846;3.224;2024-01-15T03:33:58;13.15;;;5.20;;
81306;SDS011;70775;50.846;3.224;2024-01-15T03:36:23;12.00;;;4.97;;
81306;SDS011;70775;50.846;3.224;2024-01-15T03:38:49;16.33;;;5.15;;
81306;SDS011;70775;50.846;3.224;2024-01-15T03:41:15;9.07;;;4.65;;
81306;SDS011;70775;50.846;3.224;2024-01-15T03:43:40;8.20;;;4.53;;
81306;SDS011;70775;50.846;3.224;2024-01-15T03:46:06;16.08;;;4.93;;
81306;SDS011;70775;50.846;3.224;2024-01-15T03:48:32;11.18;;;5.32;;
81306;SDS011;70775;50.846;3.224;2024-01-15T03:50:58;9.02;;;4.85;;
81306;SDS011;70775;50.846;3.224;2024-01-15T03:53:23;7.88;;;4.75;;
81306;SDS011;70775;50.846;3.224;2024-01-15T03:55:49;8.50;;;4.13;;
81306;SDS011;70775;50.846;3.224;2024-01-15T03:58:16;8.30;;;3.50;;
81306;SDS011;70775;50.846;3.224;2024-01-15T04:00:42;10.35;;;4.00;;
81306;SDS011;70775;50.846;3.224;2024-01-15T04:03:08;10.98;;;4.80;;
81306;SDS011;70775;50.846;3.224;2024-01-15T04:05:34;8.68;;;4.13;;
81306;SDS011;70775;50.846;3.224;2024-01-15T04:07:59;12.05;;;4.78;;
81306;SDS011;70775;50.846;3.224;2024-01-15T04:10:25;8.48;;;3.75;;
81306;SDS011;70775;50.846;3.224;2024-01-15T04:12:51;11.07;;;3.95;;
81306;SDS011;70775;50.846;3.224;2024-01-15T04:15:17;8.13;;;4.15;;
81306;SDS011;70775;50.846;3.224;2024-01-15T04:17:42;11.07;;;3.60;;
81306;SDS011;70775;50.846;3.224;2024-01-15T04:20:08;9.35;;;3.40;;
81306;SDS011;70775;50.846;3.224;2024-01-15T04:22:35;15.68;;;4.20;;
81306;SDS011;70775;50.846;3.224;2024-01-15T04:25:01;6.50;;;3.03;;
81306;SDS011;70775;50.846;3.224;2024-01-15T04:27:27;8.50;;;3.00;;
81306;SDS011;70775;50.846;3.224;2024-01-15T04:29:53;6.38;;;3.28;;
81306;SDS011;70775;50.846;3.224;2024-01-15T04:32:19;8.45;;;3.15;;
81306;SDS011;70775;50.846;3.224;2024-01-15T04:34:44;6.80;;;3.38;;
81306;SDS011;70775;50.846;3.224;2024-01-15T04:37:10;5.95;;;3.58;;
81306;SDS011;70775;50.846;3.224;2024-01-15T04:39:36;10.50;;;3.00;;
81306;SDS011;70775;50.846;3.224;2024-01-15T04:42:02;8.50;;;2.28;;
81306;SDS011;70775;50.846;3.224;2024-01-15T04:44:28;5.88;;;2.85;;
81306;SDS011;70775;50.846;3.224;2024-01-15T04:46:53;9.05;;;2.92;;
81306;SDS011;70775;50.846;3.224;2024-01-15T04:49:19;10.52;;;2.92;;
81306;SDS011;70775;50.846;3.224;2024-01-15T04:51:45;6.63;;;3.28;;
81306;SDS011;70775;50.846;3.224;2024-01-15T04:54:10;5.18;;;3.20;;
81306;SDS011;70775;50.846;3.224;2024-01-15T04:56:36;9.40;;;3.95;;
81306;SDS011;70775;50.846;3.224;2024-01-15T04:59:02;6.15;;;2.88;;
81306;SDS011;70775;50.846;3.224;2024-01-15T05:01:34;5.43;;;2.63;;
81306;SDS011;70775;50.846;3.224;2024-01-15T05:04:00;4.90;;;2.70;;
81306;SDS011;70775;50.846;3.224;2024-01-15T05:06:25;10.82;;;3.10;;
81306;SDS011;70775;50.846;3.224;2024-01-15T05:08:51;6.32;;;2.70;;
81306;SDS011;70775;50.846;3.224;2024-01-15T05:11:16;9.50;;;3.70;;
81306;SDS011;70775;50.846;3.224;2024-01-15T05:13:42;9.00;;;3.28;;
81306;SDS011;70775;50.846;3.224;2024-01-15T05:16:08;10.63;;;3.08;;
81306;SDS011;70775;50.846;3.224;2024-01-15T05:18:33;6.97;;;2.30;;
81306;SDS011;70775;50.846;3.224;2024-01-15T05:20:59;8.77;;;3.08;;
81306;SDS011;70775;50.846;3.224;2024-01-15T05:23:24;9.32;;;3.78;;
81306;SDS011;70775;50.846;3.224;2024-01-15T05:25:50;15.52;;;3.13;;
81306;SDS011;70775;50.846;3.224;2024-01-15T05:28:16;6.55;;;3.38;;
81306;SDS011;70775;50.846;3.224;2024-01-15T05:30:42;17.30;;;3.38;;
81306;SDS011;70775;50.846;3.224;2024-01-15T05:33:07;8.50;;;3.80;;
81306;SDS011;70775;50.846;3.224;2024-01-15T05:35:33;15.20;;;3.25;;
81306;SDS011;70775;50.846;3.224;2024-01-15T05:37:59;12.98;;;3.63;;
81306;SDS011;70775;50.846;3.224;2024-01-15T05:40:25;8.80;;;4.13;;
81306;SDS011;70775;50.846;3.224;2024-01-15T05:42:51;15.10;;;4.43;;
81306;SDS011;70775;50.846;3.224;2024-01-15T05:45:17;12.32;;;3.53;;
81306;SDS011;70775;50.846;3.224;2024-01-15T05:47:42;10.93;;;3.40;;
81306;SDS011;70775;50.846;3.224;2024-01-15T05:50:09;8.95;;;3.47;;
81306;SDS011;70775;50.846;3.224;2024-01-15T05:52:35;9.90;;;2.95;;
81306;SDS011;70775;50.846;3.224;2024-01-15T05:55:01;8.02;;;2.83;;
81306;SDS011;70775;50.846;3.224;2024-01-15T05:57:26;9.18;;;3.40;;
81306;SDS011;70775;50.846;3.224;2024-01-15T05:59:53;9.38;;;3.13;;
81306;SDS011;70775;50.846;3.224;2024-01-15T06:02:18;7.38;;;3.58;;
81306;SDS011;70775;50.846;3.224;2024-01-15T06:04:44;10.82;;;3.42;;
81306;SDS011;70775;50.846;3.224;2024-01-15T06:07:10;9.73;;;3.42;;
81306;SDS011;70775;50.846;3.224;2024-01-15T06:09:35;6.72;;;2.70;;
81306;SDS011;70775;50.846;3.224;2024-01-15T06:12:01;8.63;;;3.20;;
81306;SDS011;70775;50.846;3.224;2024-01-15T06:14:27;9.02;;;2.80;;
81306;SDS011;70775;50.846;3.224;2024-01-15T06:16:52;6.32;;;2.20;;
81306;SDS011;70775;50.846;3.224;2024-01-15T06:19:18;7.20;;;2.63;;
81306;SDS011;70775;50.846;3.224;2024-01-15T06:21:44;7.47;;;2.85;;
81306;SDS011;70775;50.846;3.224;2024-01-15T06:24:09;9.02;;;2.55;;
81306;SDS011;70775;50.846;3.224;2024-01-15T06:26:35;6.50;;;2.72;;
81306;SDS011;70775;50.846;3.224;2024-01-15T06:29:01;11.52;;;3.55;;
81306;SDS011;70775;50.846;3.224;2024-01-15T06:31:27;10.48;;;2.42;;
81306;SDS011;70775;50.846;3.224;2024-01-15T06:33:55;8.88;;;2.40;;
81306;SDS011;70775;50.846;3.224;2024-01-15T06:36:21;9.75;;;2.55;;
81306;SDS011;70775;50.846;3.224;2024-01-15T06:38:46;7.47;;;2.42;;
81306;SDS011;70775;50.846;3.224;2024-01-15T06:41:14;6.90;;;2.95;;
81306;SDS011;70775;50.846;3.224;2024-01-15T06:43:40;11.45;;;2.83;;
81306;SDS011;70775;50.846;3.224;2024-01-15T06:46:06;5.00;;;2.35;;
81306;SDS011;70775;50.846;3.224;2024-01-15T06:48:33;6.85;;;2.80;;
81306;SDS011;70775;50.846;3.224;2024-01-15T06:50:58;12.65;;;3.40;;
81306;SDS011;70775;50.846;3.224;2024-01-15T06:53:24;3.92;;;2.60;;
81306;SDS011;70775;50.846;3.224;2024-01-15T06:55:50;10.55;;;2.88;;
81306;SDS011;70775;50.846;3.224;2024-01-15T06:58:16;8.93;;;3.00;;
81306;SDS011;70775;50.846;3.224;2024-01-15T07:00:43;5.57;;;2.20;;
81306;SDS011;70775;50.846;3.224;2024-01-15T07:03:08;8.68;;;2.80;;
81306;SDS011;70775;50.846;3.224;2024-01-15T07:05:34;11.73;;;2.83;;
81306;SDS011;70775;50.846;3.224;2024-01-15T07:07:59;5.45;;;1.92;;
81306;SDS011;70775;50.846;3.224;2024-01-15T07:10:25;8.82;;;2.75;;
81306;SDS011;70775;50.846;3.224;2024-01-15T07:12:51;5.57;;;2.10;;
81306;SDS011;70775;50.846;3.224;2024-01-15T07:15:16;5.70;;;2.67;;
81306;SDS011;70775;50.846;3.224;2024-01-15T07:17:43;5.63;;;1.92;;
81306;SDS011;70775;50.846;3.224;2024-01-15T07:20:09;7.50;;;3.13;;
81306;SDS011;70775;50.846;3.224;2024-01-15T07:22:36;9.45;;;2.75;;
81306;SDS011;70775;50.846;3.224;2024-01-15T07:25:02;10.45;;;2.92;;
81306;SDS011;70775;50.846;3.224;2024-01-15T07:27:29;6.80;;;2.63;;
81306;SDS011;70775;50.846;3.224;2024-01-15T07:29:56;7.20;;;2.22;;
81306;SDS011;70775;50.846;3.224;2024-01-15T07:32:22;11.98;;;3.42;;
81306;SDS011;70775;50.846;3.224;2024-01-15T07:34:47;8.82;;;2.28;;
81306;SDS011;70775;50.846;3.224;2024-01-15T07:37:15;8.15;;;3.35;;
81306;SDS011;70775;50.846;3.224;2024-01-15T07:39:41;3.70;;;2.20;;
81306;SDS011;70775;50.846;3.224;2024-01-15T07:42:06;7.32;;;3.03;;
81306;SDS011;70775;50.846;3.224;2024-01-15T07:44:32;5.40;;;2.55;;
81306;SDS011;70775;50.846;3.224;2024-01-15T07:46:58;11.30;;;3.40;;
81306;SDS011;70775;50.846;3.224;2024-01-15T07:49:24;7.22;;;2.70;;
81306;SDS011;70775;50.846;3.224;2024-01-15T07:51:49;7.70;;;3.20;;
81306;SDS011;70775;50.846;3.224;2024-01-15T07:54:15;14.35;;;5.30;;
81306;SDS011;70775;50.846;3.224;2024-01-15T07:56:56;18.63;;;6.07;;
81306;SDS011;70775;50.846;3.224;2024-01-15T07:59:24;8.80;;;3.67;;
81306;SDS011;70775;50.846;3.224;2024-01-15T08:01:51;8.93;;;4.00;;
81306;SDS011;70775;50.846;3.224;2024-01-15T08:04:17;8.10;;;2.75;;
81306;SDS011;70775;50.846;3.224;2024-01-15T08:06:43;10.60;;;3.45;;
81306;SDS011;70775;50.846;3.224;2024-01-15T08:09:10;11.13;;;3.65;;
81306;SDS011;70775;50.846;3.224;2024-01-15T08:11:39;10.07;;;2.85;;
81306;SDS011;70775;50.846;3.224;2024-01-15T08:14:06;6.32;;;3.20;;
81306;SDS011;70775;50.846;3.224;2024-01-15T08:16:32;10.23;;;3.25;;
81306;SDS011;70775;50.846;3.224;2024-01-15T08:18:58;12.45;;;4.05;;
81306;SDS011;70775;50.846;3.224;2024-01-15T08:21:24;5.95;;;3.10;;
81306;SDS011;70775;50.846;3.224;2024-01-15T08:23:50;10.98;;;3.63;;
81306;SDS011;70775;50.846;3.224;2024-01-15T08:26:15;11.85;;;3.63;;
81306;SDS011;70775;50.846;3.224;2024-01-15T08:28:41;7.68;;;3.17;;
81306;SDS011;70775;50.846;3.224;2024-01-15T08:31:07;9.10;;;3.65;;
81306;SDS011;70775;50.846;3.224;2024-01-15T08:33:33;9.73;;;2.97;;
81306;SDS011;70775;50.846;3.224;2024-01-15T08:35:58;10.73;;;3.83;;
81306;SDS011;70775;50.846;3.224;2024-01-15T08:38:24;10.05;;;4.22;;
81306;SDS011;70775;50.846;3.224;2024-01-15T08:40:50;6.35;;;3.05;;
81306;SDS011;70775;50.846;3.224;2024-01-15T08:43:18;10.98;;;4.35;;
81306;SDS011;70775;50.846;3.224;2024-01-15T08:45:44;16.60;;;5.10;;
81306;SDS011;70775;50.846;3.224;2024-01-15T08:48:10;8.77;;;3.75;;
81306;SDS011;70775;50.846;3.224;2024-01-15T08:50:36;6.63;;;3.10;;
81306;SDS011;70775;50.846;3.224;2024-01-15T08:53:02;7.78;;;2.70;;
81306;SDS011;70775;50.846;3.224;2024-01-15T08:55:28;11.38;;;3.90;;
81306;SDS011;70775;50.846;3.224;2024-01-15T08:57:53;13.05;;;3.78;;
81306;SDS011;70775;50.846;3.224;2024-01-15T09:00:19;11.70;;;3.30;;
81306;SDS011;70775;50.846;3.224;2024-01-15T09:02:45;5.93;;;3.03;;
81306;SDS011;70775;50.846;3.224;2024-01-15T09:05:11;9.52;;;3.65;;
81306;SDS011;70775;50.846;3.224;2024-01-15T09:07:36;8.80;;;3.75;;
81306;SDS011;70775;50.846;3.224;2024-01-15T09:10:02;13.80;;;3.70;;
81306;SDS011;70775;50.846;3.224;2024-01-15T09:12:28;10.80;;;3.50;;
81306;SDS011;70775;50.846;3.224;2024-01-15T09:14:54;5.60;;;2.42;;
81306;SDS011;70775;50.846;3.224;2024-01-15T09:17:20;10.85;;;3.15;;
81306;SDS011;70775;50.846;3.224;2024-01-15T09:19:48;12.45;;;3.25;;
81306;SDS011;70775;50.846;3.224;2024-01-15T09:22:14;7.25;;;3.63;;
81306;SDS011;70775;50.846;3.224;2024-01-15T09:24:43;8.23;;;2.78;;
81306;SDS011;70775;50.846;3.224;2024-01-15T09:27:09;12.38;;;3.47;;
81306;SDS011;70775;50.846;3.224;2024-01-15T09:29:34;9.02;;;2.65;;
81306;SDS011;70775;50.846;3.224;2024-01-15T09:32:02;6.13;;;2.47;;
81306;SDS011;70775;50.846;3.224;2024-01-15T09:34:29;13.30;;;3.13;;
81306;SDS011;70775;50.846;3.224;2024-01-15T09:36:55;11.02;;;2.67;;
81306;SDS011;70775;50.846;3.224;2024-01-15T09:39:20;11.88;;;2.88;;
81306;SDS011;70775;50.846;3.224;2024-01-15T09:41:48;8.65;;;2.63;;
81306;SDS011;70775;50.846;3.224;2024-01-15T09:44:14;10.23;;;2.00;;
81306;SDS011;70775;50.846;3.224;2024-01-15T09:46:42;7.05;;;2.30;;
81306;SDS011;70775;50.846;3.224;2024-01-15T09:49:10;6.60;;;1.70;;
81306;SDS011;70775;50.846;3.224;2024-01-15T09:51:36;9.50;;;2.05;;
81306;SDS011;70775;50.846;3.224;2024-01-15T09:54:03;10.40;;;2.08;;
81306;SDS011;70775;50.846;3.224;2024-01-15T09:56:30;9.95;;;3.08;;
81306;SDS011;70775;50.846;3.224;2024-01-15T09:58:56;4.10;;;2.30;;
81306;SDS011;70775;50.846;3.224;2024-01-15T10:01:23;8.35;;;2.05;;
81306;SDS011;70775;50.846;3.224;2024-01-15T10:03:49;5.90;;;2.17;;
81306;SDS011;70775;50.846;3.224;2024-01-15T10:06:16;7.00;;;1.67;;
81306;SDS011;70775;50.846;3.224;2024-01-15T10:08:42;12.00;;;3.78;;
81306;SDS011;70775;50.846;3.224;2024-01-15T10:11:12;7.57;;;2.13;;
81306;SDS011;70775;50.846;3.224;2024-01-15T10:13:38;9.88;;;2.20;;
81306;SDS011;70775;50.846;3.224;2024-01-15T10:16:04;5.18;;;2.15;;
81306;SDS011;70775;50.846;3.224;2024-01-15T10:18:31;7.20;;;2.50;;
81306;SDS011;70775;50.846;3.224;2024-01-15T10:20:57;5.55;;;2.40;;
81306;SDS011;70775;50.846;3.224;2024-01-15T10:23:24;6.75;;;2.03;;
81306;SDS011;70775;50.846;3.224;2024-01-15T10:25:49;7.22;;;2.35;;
81306;SDS011;70775;50.846;3.224;2024-01-15T10:28:16;9.32;;;2.58;;
81306;SDS011;70775;50.846;3.224;2024-01-15T10:30:44;5.70;;;2.63;;
81306;SDS011;70775;50.846;3.224;2024-01-15T10:33:10;7.53;;;2.10;;
81306;SDS011;70775;50.846;3.224;2024-01-15T10:35:36;10.88;;;2.25;;
81306;SDS011;70775;50.846;3.224;2024-01-15T10:38:02;6.07;;;2.85;;
81306;SDS011;70775;50.846;3.224;2024-01-15T10:40:30;9.15;;;2.33;;
81306;SDS011;70775;50.846;3.224;2024-01-15T10:42:56;8.68;;;1.98;;
81306;SDS011;70775;50.846;3.224;2024-01-15T10:45:22;5.85;;;1.98;;
81306;SDS011;70775;50.846;3.224;2024-01-15T10:47:48;10.13;;;1.88;;
81306;SDS011;70775;50.846;3.224;2024-01-15T10:50:14;9.30;;;2.33;;
81306;SDS011;70775;50.846;3.224;2024-01-15T10:52:41;7.15;;;2.03;;
81306;SDS011;70775;50.846;3.224;2024-01-15T10:55:08;6.18;;;1.98;;
81306;SDS011;70775;50.846;3.224;2024-01-15T10:57:37;10.48;;;2.45;;
81306;SDS011;70775;50.846;3.224;2024-01-15T11:00:06;3.95;;;1.73;;
81306;SDS011;70775;50.846;3.224;2024-01-15T11:02:34;5.43;;;1.77;;
81306;SDS011;70775;50.846;3.224;2024-01-15T11:05:01;10.43;;;1.77;;
81306;SDS011;70775;50.846;3.224;2024-01-15T11:07:28;2.25;;;1.35;;
81306;SDS011;70775;50.846;3.224;2024-01-15T11:09:55;9.77;;;1.98;;
81306;SDS011;70775;50.846;3.224;2024-01-15T11:12:23;4.88;;;1.85;;
81306;SDS011;70775;50.846;3.224;2024-01-15T11:14:50;4.10;;;1.85;;
81306;SDS011;70775;50.846;3.224;2024-01-15T11:17:16;3.10;;;1.60;;
81306;SDS011;70775;50.846;3.224;2024-01-15T11:22:11;2.92;;;1.50;;
81306;SDS011;70775;50.846;3.224;2024-01-15T11:25:18;9.90;;;2.20;;
81306;SDS011;70775;50.846;3.224;2024-01-15T11:27:49;6.57;;;1.70;;
81306;SDS011;70775;50.846;3.224;2024-01-15T11:30:17;9.90;;;2.17;;
81306;SDS011;70775;50.846;3.224;2024-01-15T11:32:45;8.23;;;2.20;;
81306;SDS011;70775;50.846;3.224;2024-01-15T11:35:11;8.63;;;3.15;;
81306;SDS011;70775;50.846;3.224;2024-01-15T11:40:19;9.90;;;2.20;;
81306;SDS011;70775;50.846;3.224;2024-01-15T11:43:03;8.10;;;2.67;;
81306;SDS011;70775;50.846;3.224;2024-01-15T11:45:30;15.07;;;2.88;;
81306;SDS011;70775;50.846;3.224;2024-01-15T11:50:38;12.20;;;2.92;;
81306;SDS011;70775;50.846;3.224;2024-01-15T11:53:09;7.82;;;2.40;;
81306;SDS011;70775;50.846;3.224;2024-01-15T11:55:43;8.88;;;2.80;;
81306;SDS011;70775;50.846;3.224;2024-01-15T11:58:11;11.00;;;2.78;;
81306;SDS011;70775;50.846;3.224;2024-01-15T12:00:42;8.13;;;1.80;;
81306;SDS011;70775;50.846;3.224;2024-01-15T12:03:14;8.68;;;2.53;;
81306;SDS011;70775;50.846;3.224;2024-01-15T12:05:40;10.65;;;2.38;;
81306;SDS011;70775;50.846;3.224;2024-01-15T12:08:09;5.88;;;1.90;;
81306;SDS011;70775;50.846;3.224;2024-01-15T12:10:38;6.82;;;2.10;;
81306;SDS011;70775;50.846;3.224;2024-01-15T12:13:12;13.10;;;2.70;;
81306;SDS011;70775;50.846;3.224;2024-01-15T12:15:39;7.32;;;2.13;;
81306;SDS011;70775;50.846;3.224;2024-01-15T12:18:07;6.75;;;2.40;;
81306;SDS011;70775;50.846;3.224;2024-01-15T12:20:33;7.72;;;2.13;;
81306;SDS011;70775;50.846;3.224;2024-01-15T12:23:00;9.00;;;2.65;;
81306;SDS011;70775;50.846;3.224;2024-01-15T12:25:30;9.65;;;2.67;;
81306;SDS011;70775;50.846;3.224;2024-01-15T12:27:57;7.32;;;3.00;;
81306;SDS011;70775;50.846;3.224;2024-01-15T12:30:23;10.65;;;3.42;;
81306;SDS011;70775;50.846;3.224;2024-01-15T12:32:49;7.25;;;2.58;;
81306;SDS011;70775;50.846;3.224;2024-01-15T12:35:15;10.77;;;3.60;;
81306;SDS011;70775;50.846;3.224;2024-01-15T12:37:42;7.90;;;2.55;;
81306;SDS011;70775;50.846;3.224;2024-01-15T12:40:09;35.22;;;4.65;;
81306;SDS011;70775;50.846;3.224;2024-01-15T12:42:36;10.32;;;2.30;;
81306;SDS011;70775;50.846;3.224;2024-01-15T12:45:02;4.95;;;2.00;;
81306;SDS011;70775;50.846;3.224;2024-01-15T12:47:30;7.72;;;2.15;;
81306;SDS011;70775;50.846;3.224;2024-01-15T12:49:57;5.00;;;2.08;;
81306;SDS011;70775;50.846;3.224;2024-01-15T12:52:26;9.85;;;3.03;;
81306;SDS011;70775;50.846;3.224;2024-01-15T12:54:55;6.93;;;2.67;;
81306;SDS011;70775;50.846;3.224;2024-01-15T12:57:21;9.70;;;2.85;;
81306;SDS011;70775;50.846;3.224;2024-01-15T12:59:48;9.88;;;2.10;;
81306;SDS011;70775;50.846;3.224;2024-01-15T13:02:15;8.32;;;2.38;;
81306;SDS011;70775;50.846;3.224;2024-01-15T13:04:44;8.98;;;2.50;;
81306;SDS011;70775;50.846;3.224;2024-01-15T13:07:10;5.05;;;1.98;;
81306;SDS011;70775;50.846;3.224;2024-01-15T13:09:35;15.80;;;3.85;;
81306;SDS011;70775;50.846;3.224;2024-01-15T13:12:01;9.70;;;2.55;;
81306;SDS011;70775;50.846;3.224;2024-01-15T13:14:28;6.97;;;2.47;;
81306;SDS011;70775;50.846;3.224;2024-01-15T13:16:55;13.77;;;2.80;;
81306;SDS011;70775;50.846;3.224;2024-01-15T13:19:20;7.80;;;2.08;;
81306;SDS011;70775;50.846;3.224;2024-01-15T13:21:47;6.35;;;2.40;;
81306;SDS011;70775;50.846;3.224;2024-01-15T13:24:13;9.30;;;2.47;;
81306;SDS011;70775;50.846;3.224;2024-01-15T13:26:39;5.95;;;2.33;;
81306;SDS011;70775;50.846;3.224;2024-01-15T13:29:06;9.95;;;2.40;;
81306;SDS011;70775;50.846;3.224;2024-01-15T13:31:32;9.10;;;2.70;;
81306;SDS011;70775;50.846;3.224;2024-01-15T13:33:58;4.55;;;2.35;;
81306;SDS011;70775;50.846;3.224;2024-01-15T13:36:27;8.05;;;2.97;;
81306;SDS011;70775;50.846;3.224;2024-01-15T13:38:53;5.88;;;2.17;;
81306;SDS011;70775;50.846;3.224;2024-01-15T13:41:20;8.63;;;2.67;;
81306;SDS011;70775;50.846;3.224;2024-01-15T13:43:53;11.40;;;2.65;;
81306;SDS011;70775;50.846;3.224;2024-01-15T13:46:23;9.50;;;2.50;;
81306;SDS011;70775;50.846;3.224;2024-01-15T13:48:49;8.75;;;2.65;;
81306;SDS011;70775;50.846;3.224;2024-01-15T13:51:15;8.07;;;2.90;;
81306;SDS011;70775;50.846;3.224;2024-01-15T13:53:41;11.98;;;2.75;;
81306;SDS011;70775;50.846;3.224;2024-01-15T13:56:07;8.13;;;2.63;;
81306;SDS011;70775;50.846;3.224;2024-01-15T13:58:35;7.57;;;2.63;;
81306;SDS011;70775;50.846;3.224;2024-01-15T14:01:01;6.63;;;2.17;;
81306;SDS011;70775;50.846;3.224;2024-01-15T14:03:29;6.28;;;1.92;;
81306;SDS011;70775;50.846;3.224;2024-01-15T14:05:55;9.40;;;2.70;;
81306;SDS011;70775;50.846;3.224;2024-01-15T14:08:20;7.35;;;2.60;;
81306;SDS011;70775;50.846;3.224;2024-01-15T14:10:46;11.85;;;4.10;;
81306;SDS011;70775;50.846;3.224;2024-01-15T14:13:12;6.03;;;2.35;;
81306;SDS011;70775;50.846;3.224;2024-01-15T14:15:37;13.18;;;3.25;;
81306;SDS011;70775;50.846;3.224;2024-01-15T14:18:03;11.02;;;2.20;;
81306;SDS011;70775;50.846;3.224;2024-01-15T14:20:29;12.25;;;2.53;;
81306;SDS011;70775;50.846;3.224;2024-01-15T14:22:56;8.90;;;2.72;;
81306;SDS011;70775;50.846;3.224;2024-01-15T14:25:21;9.75;;;2.78;;
81306;SDS011;70775;50.846;3.224;2024-01-15T14:27:47;9.05;;;2.65;;
81306;SDS011;70775;50.846;3.224;2024-01-15T14:30:13;10.23;;;2.20;;
81306;SDS011;70775;50.846;3.224;2024-01-15T14:32:40;11.07;;;2.58;;
81306;SDS011;70775;50.846;3.224;2024-01-15T14:35:09;13.13;;;3.15;;
81306;SDS011;70775;50.846;3.224;2024-01-15T14:37:38;13.68;;;3.05;;
81306;SDS011;70775;50.846;3.224;2024-01-15T14:40:05;9.38;;;2.47;;
81306;SDS011;70775;50.846;3.224;2024-01-15T14:42:34;11.02;;;2.90;;
81306;SDS011;70775;50.846;3.224;2024-01-15T14:45:01;15.85;;;3.90;;
81306;SDS011;70775;50.846;3.224;2024-01-15T14:47:36;9.55;;;3.13;;